sensor_id;sensor_type;location;lat;lon;timestamp;P1;durP1;ratioP1;P2;durP2;ratioP2
75427;SDS011;64008;55.612;37.698;2022-12-29T00:00:06;5.28;;;1.42;;
75427;SDS011;64008;55.612;37.698;2022-12-29T00:03:30;3.38;;;1.00;;
75427;SDS011;64008;55.612;37.698;2022-12-29T00:06:54;2.67;;;0.70;;
75427;SDS011;64008;55.612;37.698;2022-12-29T00:10:18;1.35;;;0.52;;
75427;SDS011;64008;55.612;37.698;2022-12-29T00:13:48;8.05;;;1.63;;
75427;SDS011;64008;55.612;37.698;2022-12-29T00:17:30;4.38;;;1.00;;
75427;SDS011;64008;55.612;37.698;2022-12-29T00:20:54;1.92;;;0.57;;
75427;SDS011;64008;55.612;37.698;2022-12-29T00:24:37;1.60;;;0.45;;
75427;SDS011;64008;55.612;37.698;2022-12-29T00:28:39;4.97;;;1.20;;
75427;SDS011;64008;55.612;37.698;2022-12-29T00:32:21;3.15;;;1.00;;
75427;SDS011;64008;55.612;37.698;2022-12-29T00:36:47;3.15;;;0.60;;
75427;SDS011;64008;55.612;37.698;2022-12-29T00:40:12;3.50;;;0.90;;
75427;SDS011;64008;55.612;37.698;2022-12-29T00:43:54;4.00;;;1.00;;
75427;SDS011;64008;55.612;37.698;2022-12-29T00:47:18;4.80;;;0.75;;
75427;SDS011;64008;55.612;37.698;2022-12-29T00:51:05;0.70;;;0.22;;
75427;SDS011;64008;55.612;37.698;2022-12-29T00:54:34;2.78;;;0.45;;
75427;SDS011;64008;55.612;37.698;2022-12-29T00:58:01;3.63;;;0.95;;
75427;SDS011;64008;55.612;37.698;2022-12-29T01:01:29;2.53;;;0.90;;
75427;SDS011;64008;55.612;37.698;2022-12-29T01:04:53;5.45;;;0.88;;
75427;SDS011;64008;55.612;37.698;2022-12-29T01:08:17;1.50;;;0.43;;
75427;SDS011;64008;55.612;37.698;2022-12-29T01:12:00;6.60;;;1.05;;
75427;SDS011;64008;55.612;37.698;2022-12-29T01:15:24;1.35;;;0.57;;
75427;SDS011;64008;55.612;37.698;2022-12-29T01:18:48;4.20;;;1.00;;
75427;SDS011;64008;55.612;37.698;2022-12-29T01:22:12;2.88;;;0.70;;
75427;SDS011;64008;55.612;37.698;2022-12-29T01:25:36;0.82;;;0.30;;
75427;SDS011;64008;55.612;37.698;2022-12-29T01:29:00;2.78;;;0.82;;
75427;SDS011;64008;55.612;37.698;2022-12-29T01:32:24;4.90;;;1.40;;
75427;SDS011;64008;55.612;37.698;2022-12-29T01:35:48;2.50;;;0.70;;
75427;SDS011;64008;55.612;37.698;2022-12-29T01:39:12;6.07;;;1.08;;
75427;SDS011;64008;55.612;37.698;2022-12-29T01:42:36;4.45;;;0.77;;
75427;SDS011;64008;55.612;37.698;2022-12-29T01:49:45;7.00;;;0.80;;
75427;SDS011;64008;55.612;37.698;2022-12-29T01:53:24;4.93;;;1.08;;
75427;SDS011;64008;55.612;37.698;2022-12-29T01:56:51;1.75;;;0.65;;
75427;SDS011;64008;55.612;37.698;2022-12-29T02:00:18;0.50;;;0.17;;
75427;SDS011;64008;55.612;37.698;2022-12-29T02:03:43;3.08;;;0.70;;
75427;SDS011;64008;55.612;37.698;2022-12-29T02:07:21;7.50;;;1.05;;
75427;SDS011;64008;55.612;37.698;2022-12-29T02:10:47;6.82;;;1.73;;
75427;SDS011;64008;55.612;37.698;2022-12-29T02:14:12;2.80;;;0.82;;
75427;SDS011;64008;55.612;37.698;2022-12-29T02:32:41;4.38;;;0.88;;
75427;SDS011;64008;55.612;37.698;2022-12-29T02:36:40;7.53;;;1.00;;
75427;SDS011;64008;55.612;37.698;2022-12-29T02:43:50;8.90;;;1.60;;
75427;SDS011;64008;55.612;37.698;2022-12-29T02:51:01;2.38;;;0.93;;
75427;SDS011;64008;55.612;37.698;2022-12-29T02:54:32;5.10;;;1.13;;
75427;SDS011;64008;55.612;37.698;2022-12-29T03:02:14;1.85;;;0.68;;
75427;SDS011;64008;55.612;37.698;2022-12-29T03:09:39;4.40;;;1.60;;
75427;SDS011;64008;55.612;37.698;2022-12-29T03:13:50;0.80;;;0.30;;
75427;SDS011;64008;55.612;37.698;2022-12-29T03:17:55;7.20;;;1.40;;
75427;SDS011;64008;55.612;37.698;2022-12-29T03:24:58;2.70;;;0.75;;
75427;SDS011;64008;55.612;37.698;2022-12-29T03:28:28;5.05;;;1.58;;
75427;SDS011;64008;55.612;37.698;2022-12-29T03:31:56;6.10;;;1.58;;
75427;SDS011;64008;55.612;37.698;2022-12-29T03:35:25;4.72;;;0.57;;
75427;SDS011;64008;55.612;37.698;2022-12-29T03:39:02;8.00;;;2.28;;
75427;SDS011;64008;55.612;37.698;2022-12-29T03:42:30;8.88;;;2.22;;
75427;SDS011;64008;55.612;37.698;2022-12-29T03:45:56;2.40;;;0.82;;
75427;SDS011;64008;55.612;37.698;2022-12-29T03:49:20;6.43;;;1.73;;
75427;SDS011;64008;55.612;37.698;2022-12-29T03:52:44;1.77;;;0.73;;
75427;SDS011;64008;55.612;37.698;2022-12-29T03:56:08;2.70;;;0.65;;
75427;SDS011;64008;55.612;37.698;2022-12-29T03:59:33;9.77;;;2.60;;
75427;SDS011;64008;55.612;37.698;2022-12-29T04:02:57;5.88;;;1.58;;
75427;SDS011;64008;55.612;37.698;2022-12-29T04:06:21;6.25;;;1.63;;
75427;SDS011;64008;55.612;37.698;2022-12-29T04:09:45;5.82;;;1.15;;
75427;SDS011;64008;55.612;37.698;2022-12-29T04:13:09;6.38;;;1.38;;
75427;SDS011;64008;55.612;37.698;2022-12-29T04:16:33;5.10;;;1.23;;
75427;SDS011;64008;55.612;37.698;2022-12-29T04:19:57;1.20;;;0.65;;
75427;SDS011;64008;55.612;37.698;2022-12-29T04:23:24;1.80;;;0.57;;
75427;SDS011;64008;55.612;37.698;2022-12-29T04:26:48;12.52;;;1.98;;
75427;SDS011;64008;55.612;37.698;2022-12-29T04:30:12;6.35;;;1.45;;
75427;SDS011;64008;55.612;37.698;2022-12-29T04:33:36;3.60;;;1.30;;
75427;SDS011;64008;55.612;37.698;2022-12-29T04:37:00;6.57;;;1.52;;
75427;SDS011;64008;55.612;37.698;2022-12-29T04:40:24;7.07;;;2.42;;
75427;SDS011;64008;55.612;37.698;2022-12-29T04:43:49;5.13;;;1.63;;
75427;SDS011;64008;55.612;37.698;2022-12-29T04:47:13;5.88;;;1.90;;
75427;SDS011;64008;55.612;37.698;2022-12-29T04:50:38;5.75;;;1.90;;
75427;SDS011;64008;55.612;37.698;2022-12-29T04:54:02;5.47;;;1.60;;
75427;SDS011;64008;55.612;37.698;2022-12-29T04:57:26;2.63;;;0.52;;
75427;SDS011;64008;55.612;37.698;2022-12-29T05:00:50;6.35;;;1.55;;
75427;SDS011;64008;55.612;37.698;2022-12-29T05:04:14;5.35;;;1.20;;
75427;SDS011;64008;55.612;37.698;2022-12-29T05:07:39;3.58;;;1.08;;
75427;SDS011;64008;55.612;37.698;2022-12-29T05:11:03;8.32;;;1.85;;
75427;SDS011;64008;55.612;37.698;2022-12-29T05:14:27;2.05;;;0.82;;
75427;SDS011;64008;55.612;37.698;2022-12-29T05:17:51;6.40;;;2.00;;
75427;SDS011;64008;55.612;37.698;2022-12-29T05:21:15;3.50;;;1.20;;
75427;SDS011;64008;55.612;37.698;2022-12-29T05:24:39;3.25;;;0.98;;
75427;SDS011;64008;55.612;37.698;2022-12-29T05:28:03;7.55;;;2.40;;
75427;SDS011;64008;55.612;37.698;2022-12-29T05:31:27;5.25;;;1.55;;
75427;SDS011;64008;55.612;37.698;2022-12-29T05:34:51;1.95;;;0.73;;
75427;SDS011;64008;55.612;37.698;2022-12-29T05:38:15;5.72;;;1.58;;
75427;SDS011;64008;55.612;37.698;2022-12-29T05:41:39;4.80;;;1.50;;
75427;SDS011;64008;55.612;37.698;2022-12-29T05:45:03;7.80;;;2.30;;
75427;SDS011;64008;55.612;37.698;2022-12-29T05:48:28;2.13;;;1.05;;
75427;SDS011;64008;55.612;37.698;2022-12-29T05:51:52;5.57;;;2.17;;
75427;SDS011;64008;55.612;37.698;2022-12-29T05:55:16;7.88;;;2.25;;
75427;SDS011;64008;55.612;37.698;2022-12-29T05:58:40;6.35;;;1.90;;
75427;SDS011;64008;55.612;37.698;2022-12-29T06:02:04;0.88;;;0.17;;
75427;SDS011;64008;55.612;37.698;2022-12-29T06:05:28;7.10;;;2.50;;
75427;SDS011;64008;55.612;37.698;2022-12-29T06:08:52;11.55;;;3.00;;
75427;SDS011;64008;55.612;37.698;2022-12-29T06:12:16;8.65;;;2.20;;
75427;SDS011;64008;55.612;37.698;2022-12-29T06:15:40;7.75;;;2.80;;
75427;SDS011;64008;55.612;37.698;2022-12-29T06:19:04;10.15;;;3.65;;
75427;SDS011;64008;55.612;37.698;2022-12-29T06:22:29;7.63;;;2.70;;
75427;SDS011;64008;55.612;37.698;2022-12-29T06:25:53;13.95;;;3.72;;
75427;SDS011;64008;55.612;37.698;2022-12-29T06:29:17;7.03;;;2.42;;
75427;SDS011;64008;55.612;37.698;2022-12-29T06:32:42;8.18;;;2.45;;
75427;SDS011;64008;55.612;37.698;2022-12-29T06:36:06;4.82;;;2.33;;
75427;SDS011;64008;55.612;37.698;2022-12-29T06:39:30;6.53;;;2.13;;
75427;SDS011;64008;55.612;37.698;2022-12-29T06:42:54;3.50;;;1.55;;
75427;SDS011;64008;55.612;37.698;2022-12-29T06:46:18;8.20;;;2.50;;
75427;SDS011;64008;55.612;37.698;2022-12-29T06:49:43;11.18;;;3.97;;
75427;SDS011;64008;55.612;37.698;2022-12-29T06:53:07;9.27;;;2.90;;
75427;SDS011;64008;55.612;37.698;2022-12-29T06:56:31;13.70;;;4.22;;
75427;SDS011;64008;55.612;37.698;2022-12-29T06:59:55;6.13;;;2.55;;
75427;SDS011;64008;55.612;37.698;2022-12-29T07:03:19;11.95;;;3.97;;
75427;SDS011;64008;55.612;37.698;2022-12-29T07:06:43;8.15;;;3.08;;
75427;SDS011;64008;55.612;37.698;2022-12-29T07:10:08;7.47;;;3.03;;
75427;SDS011;64008;55.612;37.698;2022-12-29T07:13:32;7.10;;;2.15;;
75427;SDS011;64008;55.612;37.698;2022-12-29T07:16:56;9.43;;;3.17;;
75427;SDS011;64008;55.612;37.698;2022-12-29T07:20:19;8.75;;;2.80;;
75427;SDS011;64008;55.612;37.698;2022-12-29T07:23:44;9.35;;;4.28;;
75427;SDS011;64008;55.612;37.698;2022-12-29T07:27:08;3.78;;;1.00;;
75427;SDS011;64008;55.612;37.698;2022-12-29T07:30:32;9.88;;;2.47;;
75427;SDS011;64008;55.612;37.698;2022-12-29T07:33:56;4.93;;;1.83;;
75427;SDS011;64008;55.612;37.698;2022-12-29T07:37:20;9.20;;;3.22;;
75427;SDS011;64008;55.612;37.698;2022-12-29T07:40:44;7.03;;;2.97;;
75427;SDS011;64008;55.612;37.698;2022-12-29T07:44:08;13.10;;;3.78;;
75427;SDS011;64008;55.612;37.698;2022-12-29T07:47:34;10.65;;;4.07;;
75427;SDS011;64008;55.612;37.698;2022-12-29T07:51:00;6.28;;;2.65;;
75427;SDS011;64008;55.612;37.698;2022-12-29T07:54:25;5.50;;;1.65;;
75427;SDS011;64008;55.612;37.698;2022-12-29T07:57:49;7.95;;;3.75;;
75427;SDS011;64008;55.612;37.698;2022-12-29T08:01:13;11.23;;;4.10;;
75427;SDS011;64008;55.612;37.698;2022-12-29T08:04:37;8.88;;;3.60;;
75427;SDS011;64008;55.612;37.698;2022-12-29T08:08:01;8.23;;;4.38;;
75427;SDS011;64008;55.612;37.698;2022-12-29T08:11:25;8.82;;;3.22;;
75427;SDS011;64008;55.612;37.698;2022-12-29T08:14:49;13.88;;;3.63;;
75427;SDS011;64008;55.612;37.698;2022-12-29T08:18:13;10.40;;;4.68;;
75427;SDS011;64008;55.612;37.698;2022-12-29T08:21:38;9.57;;;4.30;;
75427;SDS011;64008;55.612;37.698;2022-12-29T08:25:05;10.23;;;3.38;;
75427;SDS011;64008;55.612;37.698;2022-12-29T08:28:30;7.55;;;2.05;;
75427;SDS011;64008;55.612;37.698;2022-12-29T08:31:54;12.80;;;3.15;;
75427;SDS011;64008;55.612;37.698;2022-12-29T08:35:30;12.52;;;4.25;;
75427;SDS011;64008;55.612;37.698;2022-12-29T08:38:55;6.93;;;2.63;;
75427;SDS011;64008;55.612;37.698;2022-12-29T08:42:19;11.52;;;4.35;;
75427;SDS011;64008;55.612;37.698;2022-12-29T08:45:43;8.45;;;3.95;;
75427;SDS011;64008;55.612;37.698;2022-12-29T08:49:07;8.98;;;3.83;;
75427;SDS011;64008;55.612;37.698;2022-12-29T08:52:31;4.88;;;2.15;;
75427;SDS011;64008;55.612;37.698;2022-12-29T08:55:59;6.53;;;1.63;;
75427;SDS011;64008;55.612;37.698;2022-12-29T08:59:23;6.70;;;2.10;;
75427;SDS011;64008;55.612;37.698;2022-12-29T09:02:47;8.95;;;2.72;;
75427;SDS011;64008;55.612;37.698;2022-12-29T09:06:12;4.65;;;2.20;;
75427;SDS011;64008;55.612;37.698;2022-12-29T09:09:36;6.15;;;1.80;;
75427;SDS011;64008;55.612;37.698;2022-12-29T09:13:00;7.20;;;3.60;;
75427;SDS011;64008;55.612;37.698;2022-12-29T09:16:24;10.63;;;3.92;;
75427;SDS011;64008;55.612;37.698;2022-12-29T09:20:06;8.05;;;3.75;;
75427;SDS011;64008;55.612;37.698;2022-12-29T09:23:31;6.90;;;2.78;;
75427;SDS011;64008;55.612;37.698;2022-12-29T09:26:55;5.90;;;2.03;;
75427;SDS011;64008;55.612;37.698;2022-12-29T09:30:20;9.13;;;2.60;;
75427;SDS011;64008;55.612;37.698;2022-12-29T09:33:45;9.55;;;2.95;;
75427;SDS011;64008;55.612;37.698;2022-12-29T09:37:09;8.55;;;2.60;;
75427;SDS011;64008;55.612;37.698;2022-12-29T09:40:33;7.68;;;3.05;;
75427;SDS011;64008;55.612;37.698;2022-12-29T09:47:40;6.43;;;2.72;;
75427;SDS011;64008;55.612;37.698;2022-12-29T09:51:10;8.90;;;3.00;;
75427;SDS011;64008;55.612;37.698;2022-12-29T09:54:43;11.55;;;3.10;;
75427;SDS011;64008;55.612;37.698;2022-12-29T09:58:20;7.35;;;2.67;;
75427;SDS011;64008;55.612;37.698;2022-12-29T10:01:51;9.57;;;2.70;;
75427;SDS011;64008;55.612;37.698;2022-12-29T10:13:01;6.13;;;1.80;;
75427;SDS011;64008;55.612;37.698;2022-12-29T10:24:19;7.82;;;2.75;;
75427;SDS011;64008;55.612;37.698;2022-12-29T10:27:47;7.97;;;2.75;;
75427;SDS011;64008;55.612;37.698;2022-12-29T10:31:40;4.70;;;2.22;;
75427;SDS011;64008;55.612;37.698;2022-12-29T10:35:11;5.60;;;2.17;;
75427;SDS011;64008;55.612;37.698;2022-12-29T10:38:42;4.25;;;1.40;;
75427;SDS011;64008;55.612;37.698;2022-12-29T10:42:27;6.20;;;2.80;;
75427;SDS011;64008;55.612;37.698;2022-12-29T10:46:01;4.28;;;1.83;;
75427;SDS011;64008;55.612;37.698;2022-12-29T10:49:31;6.22;;;2.20;;
75427;SDS011;64008;55.612;37.698;2022-12-29T10:52:58;3.92;;;1.00;;
75427;SDS011;64008;55.612;37.698;2022-12-29T11:00:14;7.93;;;2.30;;
75427;SDS011;64008;55.612;37.698;2022-12-29T11:07:32;6.68;;;2.80;;
75427;SDS011;64008;55.612;37.698;2022-12-29T11:11:07;6.78;;;2.25;;
75427;SDS011;64008;55.612;37.698;2022-12-29T11:14:46;5.88;;;2.03;;
75427;SDS011;64008;55.612;37.698;2022-12-29T11:21:46;8.50;;;2.63;;
75427;SDS011;64008;55.612;37.698;2022-12-29T11:25:11;6.30;;;2.35;;
75427;SDS011;64008;55.612;37.698;2022-12-29T11:28:47;6.10;;;2.17;;
75427;SDS011;64008;55.612;37.698;2022-12-29T11:32:24;7.30;;;3.03;;
75427;SDS011;64008;55.612;37.698;2022-12-29T11:35:49;8.77;;;2.45;;
75427;SDS011;64008;55.612;37.698;2022-12-29T11:39:33;7.97;;;2.53;;
75427;SDS011;64008;55.612;37.698;2022-12-29T11:43:04;10.30;;;3.20;;
75427;SDS011;64008;55.612;37.698;2022-12-29T11:46:33;10.30;;;3.38;;
75427;SDS011;64008;55.612;37.698;2022-12-29T11:49:59;5.72;;;2.38;;
75427;SDS011;64008;55.612;37.698;2022-12-29T11:57:14;9.88;;;3.72;;
75427;SDS011;64008;55.612;37.698;2022-12-29T12:00:40;10.02;;;3.40;;
75427;SDS011;64008;55.612;37.698;2022-12-29T12:04:24;7.05;;;2.70;;
75427;SDS011;64008;55.612;37.698;2022-12-29T12:11:52;5.95;;;2.47;;
75427;SDS011;64008;55.612;37.698;2022-12-29T12:16:22;5.93;;;2.65;;
75427;SDS011;64008;55.612;37.698;2022-12-29T12:26:42;8.98;;;3.00;;
75427;SDS011;64008;55.612;37.698;2022-12-29T12:33:58;10.65;;;3.40;;
75427;SDS011;64008;55.612;37.698;2022-12-29T12:37:34;7.28;;;3.05;;
75427;SDS011;64008;55.612;37.698;2022-12-29T12:45:32;8.68;;;3.65;;
75427;SDS011;64008;55.612;37.698;2022-12-29T12:56:25;12.32;;;4.85;;
75427;SDS011;64008;55.612;37.698;2022-12-29T13:00:11;8.50;;;4.03;;
75427;SDS011;64008;55.612;37.698;2022-12-29T13:15:32;12.63;;;4.55;;
75427;SDS011;64008;55.612;37.698;2022-12-29T13:22:41;15.05;;;5.13;;
75427;SDS011;64008;55.612;37.698;2022-12-29T13:30:02;11.73;;;4.25;;
75427;SDS011;64008;55.612;37.698;2022-12-29T13:33:54;15.68;;;5.03;;
75427;SDS011;64008;55.612;37.698;2022-12-29T13:37:30;11.75;;;4.45;;
75427;SDS011;64008;55.612;37.698;2022-12-29T13:41:31;12.23;;;5.10;;
75427;SDS011;64008;55.612;37.698;2022-12-29T13:45:00;15.50;;;5.35;;
75427;SDS011;64008;55.612;37.698;2022-12-29T13:52:31;16.58;;;4.97;;
75427;SDS011;64008;55.612;37.698;2022-12-29T13:56:16;16.75;;;5.28;;
75427;SDS011;64008;55.612;37.698;2022-12-29T14:03:40;18.73;;;6.20;;
75427;SDS011;64008;55.612;37.698;2022-12-29T14:07:20;16.17;;;6.35;;
75427;SDS011;64008;55.612;37.698;2022-12-29T14:10:48;11.65;;;4.25;;
75427;SDS011;64008;55.612;37.698;2022-12-29T14:14:28;16.30;;;6.65;;
75427;SDS011;64008;55.612;37.698;2022-12-29T14:18:01;17.92;;;7.50;;
75427;SDS011;64008;55.612;37.698;2022-12-29T14:21:56;17.70;;;6.13;;
75427;SDS011;64008;55.612;37.698;2022-12-29T14:29:22;13.93;;;5.82;;
75427;SDS011;64008;55.612;37.698;2022-12-29T14:33:14;19.08;;;6.28;;
75427;SDS011;64008;55.612;37.698;2022-12-29T14:40:23;14.98;;;5.43;;
75427;SDS011;64008;55.612;37.698;2022-12-29T14:43:54;16.80;;;6.38;;
75427;SDS011;64008;55.612;37.698;2022-12-29T14:50:54;17.42;;;7.75;;
75427;SDS011;64008;55.612;37.698;2022-12-29T14:58:22;20.25;;;6.25;;
75427;SDS011;64008;55.612;37.698;2022-12-29T15:01:51;24.27;;;8.32;;
75427;SDS011;64008;55.612;37.698;2022-12-29T15:05:44;23.27;;;8.80;;
75427;SDS011;64008;55.612;37.698;2022-12-29T15:12:49;16.00;;;6.03;;
75427;SDS011;64008;55.612;37.698;2022-12-29T15:16:26;12.55;;;4.13;;
75427;SDS011;64008;55.612;37.698;2022-12-29T15:19:54;18.25;;;5.93;;
75427;SDS011;64008;55.612;37.698;2022-12-29T15:23:32;31.58;;;8.60;;
75427;SDS011;64008;55.612;37.698;2022-12-29T15:26:57;27.52;;;7.82;;
75427;SDS011;64008;55.612;37.698;2022-12-29T15:30:29;28.10;;;8.90;;
75427;SDS011;64008;55.612;37.698;2022-12-29T15:33:54;27.02;;;8.05;;
75427;SDS011;64008;55.612;37.698;2022-12-29T15:37:22;30.75;;;8.32;;
75427;SDS011;64008;55.612;37.698;2022-12-29T15:40:52;29.58;;;8.82;;
75427;SDS011;64008;55.612;37.698;2022-12-29T15:44:44;44.35;;;10.40;;
75427;SDS011;64008;55.612;37.698;2022-12-29T15:48:19;30.42;;;9.70;;
75427;SDS011;64008;55.612;37.698;2022-12-29T15:51:45;31.90;;;10.38;;
75427;SDS011;64008;55.612;37.698;2022-12-29T16:02:55;30.90;;;9.07;;
75427;SDS011;64008;55.612;37.698;2022-12-29T16:06:28;26.45;;;9.07;;
75427;SDS011;64008;55.612;37.698;2022-12-29T16:09:55;21.98;;;8.40;;
75427;SDS011;64008;55.612;37.698;2022-12-29T16:16:53;24.92;;;8.95;;
75427;SDS011;64008;55.612;37.698;2022-12-29T16:23:47;22.90;;;7.43;;
75427;SDS011;64008;55.612;37.698;2022-12-29T16:27:22;20.60;;;7.80;;
75427;SDS011;64008;55.612;37.698;2022-12-29T16:31:23;24.95;;;7.25;;
75427;SDS011;64008;55.612;37.698;2022-12-29T16:35:02;24.83;;;6.88;;
75427;SDS011;64008;55.612;37.698;2022-12-29T16:38:30;26.35;;;7.93;;
75427;SDS011;64008;55.612;37.698;2022-12-29T16:41:56;28.77;;;8.35;;
75427;SDS011;64008;55.612;37.698;2022-12-29T16:48:55;17.60;;;6.95;;
75427;SDS011;64008;55.612;37.698;2022-12-29T16:52:38;29.23;;;9.65;;
75427;SDS011;64008;55.612;37.698;2022-12-29T16:56:05;26.60;;;9.57;;
75427;SDS011;64008;55.612;37.698;2022-12-29T16:59:34;28.92;;;10.05;;
75427;SDS011;64008;55.612;37.698;2022-12-29T17:03:00;27.65;;;8.70;;
75427;SDS011;64008;55.612;37.698;2022-12-29T17:06:30;30.10;;;9.80;;
75427;SDS011;64008;55.612;37.698;2022-12-29T17:09:55;20.08;;;7.35;;
75427;SDS011;64008;55.612;37.698;2022-12-29T17:13:39;23.95;;;8.18;;
75427;SDS011;64008;55.612;37.698;2022-12-29T17:17:16;24.38;;;8.32;;
75427;SDS011;64008;55.612;37.698;2022-12-29T17:20:40;18.77;;;7.13;;
75427;SDS011;64008;55.612;37.698;2022-12-29T17:24:07;23.65;;;8.60;;
75427;SDS011;64008;55.612;37.698;2022-12-29T17:31:41;26.63;;;9.48;;
75427;SDS011;64008;55.612;37.698;2022-12-29T17:35:05;19.83;;;7.35;;
75427;SDS011;64008;55.612;37.698;2022-12-29T17:38:36;16.63;;;6.90;;
75427;SDS011;64008;55.612;37.698;2022-12-29T17:42:00;24.30;;;8.68;;
75427;SDS011;64008;55.612;37.698;2022-12-29T17:45:25;26.02;;;8.18;;
75427;SDS011;64008;55.612;37.698;2022-12-29T17:48:49;20.65;;;8.23;;
75427;SDS011;64008;55.612;37.698;2022-12-29T17:52:13;24.73;;;8.02;;
75427;SDS011;64008;55.612;37.698;2022-12-29T17:55:40;9.75;;;3.83;;
75427;SDS011;64008;55.612;37.698;2022-12-29T17:59:07;23.50;;;8.13;;
75427;SDS011;64008;55.612;37.698;2022-12-29T18:02:45;25.20;;;8.15;;
75427;SDS011;64008;55.612;37.698;2022-12-29T18:06:09;20.67;;;8.02;;
75427;SDS011;64008;55.612;37.698;2022-12-29T18:09:35;20.73;;;8.10;;
75427;SDS011;64008;55.612;37.698;2022-12-29T18:12:59;21.42;;;7.80;;
75427;SDS011;64008;55.612;37.698;2022-12-29T18:16:23;21.25;;;6.75;;
75427;SDS011;64008;55.612;37.698;2022-12-29T18:19:47;19.65;;;7.93;;
75427;SDS011;64008;55.612;37.698;2022-12-29T18:23:20;18.10;;;7.93;;
75427;SDS011;64008;55.612;37.698;2022-12-29T18:26:44;20.90;;;7.72;;
75427;SDS011;64008;55.612;37.698;2022-12-29T18:30:08;31.83;;;11.85;;
75427;SDS011;64008;55.612;37.698;2022-12-29T18:33:40;27.60;;;8.98;;
75427;SDS011;64008;55.612;37.698;2022-12-29T18:37:07;19.33;;;7.03;;
75427;SDS011;64008;55.612;37.698;2022-12-29T18:40:32;24.52;;;8.95;;
75427;SDS011;64008;55.612;37.698;2022-12-29T18:43:57;20.73;;;8.40;;
75427;SDS011;64008;55.612;37.698;2022-12-29T18:47:21;27.17;;;9.45;;
75427;SDS011;64008;55.612;37.698;2022-12-29T18:50:46;20.80;;;7.82;;
75427;SDS011;64008;55.612;37.698;2022-12-29T18:54:18;20.35;;;7.45;;
75427;SDS011;64008;55.612;37.698;2022-12-29T18:57:47;20.85;;;7.45;;
75427;SDS011;64008;55.612;37.698;2022-12-29T19:05:01;25.15;;;7.50;;
75427;SDS011;64008;55.612;37.698;2022-12-29T19:08:25;22.50;;;7.25;;
75427;SDS011;64008;55.612;37.698;2022-12-29T19:11:51;25.73;;;7.90;;
75427;SDS011;64008;55.612;37.698;2022-12-29T19:15:26;27.45;;;8.48;;
75427;SDS011;64008;55.612;37.698;2022-12-29T19:18:51;22.38;;;8.02;;
75427;SDS011;64008;55.612;37.698;2022-12-29T19:22:15;19.58;;;8.07;;
75427;SDS011;64008;55.612;37.698;2022-12-29T19:25:41;20.70;;;7.22;;
75427;SDS011;64008;55.612;37.698;2022-12-29T19:29:07;17.52;;;6.95;;
75427;SDS011;64008;55.612;37.698;2022-12-29T19:32:31;19.38;;;6.32;;
75427;SDS011;64008;55.612;37.698;2022-12-29T19:35:59;25.75;;;8.40;;
75427;SDS011;64008;55.612;37.698;2022-12-29T19:39:24;24.35;;;8.52;;
75427;SDS011;64008;55.612;37.698;2022-12-29T19:42:49;22.08;;;8.15;;
75427;SDS011;64008;55.612;37.698;2022-12-29T19:46:15;21.33;;;7.68;;
75427;SDS011;64008;55.612;37.698;2022-12-29T19:49:33;6.70;;;2.78;;
75427;SDS011;64008;55.612;37.698;2022-12-29T19:51:58;23.58;;;8.85;;
75427;SDS011;64008;55.612;37.698;2022-12-29T19:54:24;19.48;;;8.43;;
75427;SDS011;64008;55.612;37.698;2022-12-29T19:56:49;19.48;;;8.07;;
75427;SDS011;64008;55.612;37.698;2022-12-29T20:00:13;21.13;;;7.95;;
75427;SDS011;64008;55.612;37.698;2022-12-29T20:03:39;23.15;;;8.30;;
75427;SDS011;64008;55.612;37.698;2022-12-29T20:07:03;23.83;;;8.07;;
75427;SDS011;64008;55.612;37.698;2022-12-29T20:10:27;22.17;;;8.15;;
75427;SDS011;64008;55.612;37.698;2022-12-29T20:13:52;18.52;;;7.63;;
75427;SDS011;64008;55.612;37.698;2022-12-29T20:17:16;16.55;;;6.47;;
75427;SDS011;64008;55.612;37.698;2022-12-29T20:20:41;20.90;;;8.63;;
75427;SDS011;64008;55.612;37.698;2022-12-29T20:24:05;18.55;;;7.13;;
75427;SDS011;64008;55.612;37.698;2022-12-29T20:27:29;26.40;;;8.82;;
75427;SDS011;64008;55.612;37.698;2022-12-29T20:30:58;22.85;;;8.07;;
75427;SDS011;64008;55.612;37.698;2022-12-29T20:34:22;21.80;;;8.05;;
75427;SDS011;64008;55.612;37.698;2022-12-29T20:37:46;16.77;;;5.93;;
75427;SDS011;64008;55.612;37.698;2022-12-29T20:41:11;22.02;;;8.20;;
75427;SDS011;64008;55.612;37.698;2022-12-29T20:44:36;18.60;;;7.60;;
75427;SDS011;64008;55.612;37.698;2022-12-29T20:48:00;22.38;;;8.23;;
75427;SDS011;64008;55.612;37.698;2022-12-29T20:51:24;20.58;;;7.75;;
75427;SDS011;64008;55.612;37.698;2022-12-29T20:54:48;20.45;;;7.93;;
75427;SDS011;64008;55.612;37.698;2022-12-29T20:58:12;22.10;;;9.73;;
75427;SDS011;64008;55.612;37.698;2022-12-29T21:01:37;17.58;;;8.68;;
75427;SDS011;64008;55.612;37.698;2022-12-29T21:05:01;28.15;;;11.57;;
75427;SDS011;64008;55.612;37.698;2022-12-29T21:08:26;30.70;;;11.45;;
75427;SDS011;64008;55.612;37.698;2022-12-29T21:11:51;20.27;;;8.77;;
75427;SDS011;64008;55.612;37.698;2022-12-29T21:15:15;21.95;;;8.98;;
75427;SDS011;64008;55.612;37.698;2022-12-29T21:18:39;20.20;;;8.10;;
75427;SDS011;64008;55.612;37.698;2022-12-29T21:22:03;21.92;;;8.60;;
75427;SDS011;64008;55.612;37.698;2022-12-29T21:25:28;24.63;;;8.35;;
75427;SDS011;64008;55.612;37.698;2022-12-29T21:28:52;21.95;;;7.95;;
75427;SDS011;64008;55.612;37.698;2022-12-29T21:32:16;25.10;;;7.55;;
75427;SDS011;64008;55.612;37.698;2022-12-29T21:35:41;21.25;;;9.07;;
75427;SDS011;64008;55.612;37.698;2022-12-29T21:39:05;22.60;;;8.57;;
75427;SDS011;64008;55.612;37.698;2022-12-29T21:42:29;22.95;;;7.45;;
75427;SDS011;64008;55.612;37.698;2022-12-29T21:45:53;22.88;;;8.20;;
75427;SDS011;64008;55.612;37.698;2022-12-29T21:49:17;24.55;;;10.35;;
75427;SDS011;64008;55.612;37.698;2022-12-29T21:52:41;26.83;;;9.10;;
75427;SDS011;64008;55.612;37.698;2022-12-29T21:59:58;28.67;;;9.45;;
75427;SDS011;64008;55.612;37.698;2022-12-29T22:03:41;22.83;;;9.30;;
75427;SDS011;64008;55.612;37.698;2022-12-29T22:07:24;17.00;;;6.68;;
75427;SDS011;64008;55.612;37.698;2022-12-29T22:11:07;20.67;;;9.02;;
75427;SDS011;64008;55.612;37.698;2022-12-29T22:14:49;23.75;;;9.65;;
75427;SDS011;64008;55.612;37.698;2022-12-29T22:18:13;22.13;;;8.63;;
75427;SDS011;64008;55.612;37.698;2022-12-29T22:21:39;18.50;;;7.05;;
75427;SDS011;64008;55.612;37.698;2022-12-29T22:25:04;22.52;;;7.88;;
75427;SDS011;64008;55.612;37.698;2022-12-29T22:28:29;21.65;;;8.43;;
75427;SDS011;64008;55.612;37.698;2022-12-29T22:31:53;24.40;;;8.25;;
75427;SDS011;64008;55.612;37.698;2022-12-29T22:35:17;32.22;;;10.60;;
75427;SDS011;64008;55.612;37.698;2022-12-29T22:38:41;27.80;;;8.93;;
75427;SDS011;64008;55.612;37.698;2022-12-29T22:42:05;30.05;;;9.32;;
75427;SDS011;64008;55.612;37.698;2022-12-29T22:45:29;30.88;;;10.65;;
75427;SDS011;64008;55.612;37.698;2022-12-29T22:48:54;25.00;;;9.93;;
75427;SDS011;64008;55.612;37.698;2022-12-29T22:52:18;27.10;;;8.90;;
75427;SDS011;64008;55.612;37.698;2022-12-29T22:55:42;25.38;;;8.63;;
75427;SDS011;64008;55.612;37.698;2022-12-29T22:59:07;21.33;;;8.75;;
75427;SDS011;64008;55.612;37.698;2022-12-29T23:02:32;30.98;;;9.77;;
75427;SDS011;64008;55.612;37.698;2022-12-29T23:05:57;26.77;;;9.40;;
75427;SDS011;64008;55.612;37.698;2022-12-29T23:09:21;32.58;;;10.02;;
75427;SDS011;64008;55.612;37.698;2022-12-29T23:12:46;32.25;;;10.30;;
75427;SDS011;64008;55.612;37.698;2022-12-29T23:16:10;31.58;;;9.65;;
75427;SDS011;64008;55.612;37.698;2022-12-29T23:19:35;27.95;;;9.70;;